createdAt,value
2023-04-16T00:00:48.498Z,12.90
2023-04-16T00:03:25.581Z,12.80
2023-04-16T00:06:02.421Z,12.66
2023-04-16T00:08:39.822Z,12.58
2023-04-16T00:11:16.476Z,12.50
2023-04-16T00:13:53.871Z,12.40
2023-04-16T00:16:31.964Z,12.40
2023-04-16T00:19:08.895Z,12.32
2023-04-16T00:21:46.582Z,12.28
2023-04-16T00:24:23.096Z,12.20
2023-04-16T00:26:59.892Z,12.10
2023-04-16T00:29:37.371Z,11.96
2023-04-16T00:32:13.739Z,11.70
2023-04-16T00:34:50.245Z,11.60
2023-04-16T00:37:29.010Z,11.60
2023-04-16T00:40:06.346Z,11.56
2023-04-16T00:42:43.657Z,11.50
2023-04-16T00:45:23.194Z,11.50
2023-04-16T00:48:00.675Z,11.50
2023-04-16T00:50:38.649Z,11.50
2023-04-16T00:53:16.014Z,11.50
2023-04-16T00:55:56.230Z,11.50
2023-04-16T00:58:33.796Z,11.50
2023-04-16T01:01:10.816Z,11.50
2023-04-16T01:03:49.872Z,11.50
2023-04-16T01:06:26.468Z,11.50
2023-04-16T01:09:04.014Z,11.40
2023-04-16T01:11:41.119Z,11.40
2023-04-16T01:14:18.130Z,11.40
2023-04-16T01:16:54.389Z,11.32
2023-04-16T01:19:31.380Z,11.30
2023-04-16T01:22:08.357Z,11.20
2023-04-16T01:24:45.009Z,11.20
2023-04-16T01:27:20.627Z,11.12
2023-04-16T01:29:58.148Z,11.10
2023-04-16T01:32:45.720Z,11.20
2023-04-16T01:35:23.618Z,11.10
2023-04-16T01:37:59.933Z,11.10
2023-04-16T01:40:37.016Z,11.10
2023-04-16T01:43:14.595Z,11.10
2023-04-16T01:45:51.355Z,11.02
2023-04-16T01:48:28.113Z,11.00
2023-04-16T01:51:05.082Z,10.90
2023-04-16T01:53:43.552Z,10.90
2023-04-16T01:56:20.797Z,10.90
2023-04-16T01:58:58.122Z,10.80
2023-04-16T02:01:37.687Z,10.70
2023-04-16T02:04:14.300Z,10.70
2023-04-16T02:06:51.334Z,10.70
2023-04-16T02:09:28.469Z,10.70
2023-04-16T02:12:05.500Z,10.60
2023-04-16T02:14:42.213Z,10.60
2023-04-16T02:17:19.441Z,10.50
2023-04-16T02:19:59.959Z,10.50
2023-04-16T02:22:36.876Z,10.40
2023-04-16T02:25:16.543Z,10.40
2023-04-16T02:27:53.876Z,10.40
2023-04-16T02:30:44.300Z,10.32
2023-04-16T02:33:21.340Z,10.30
2023-04-16T02:36:04.938Z,10.30
2023-04-16T02:38:42.743Z,10.30
2023-04-16T02:41:19.483Z,10.30
2023-04-16T02:43:56.737Z,10.30
2023-04-16T02:46:37.501Z,10.30
2023-04-16T02:49:14.605Z,10.30
2023-04-16T02:52:02.977Z,10.20
2023-04-16T02:54:39.905Z,10.10
2023-04-16T02:57:16.350Z,10.10
2023-04-16T02:59:53.492Z,10.10
2023-04-16T03:02:30.398Z,10.00
2023-04-16T03:05:07.182Z,10.00
2023-04-16T03:07:43.205Z,10.00
2023-04-16T03:10:20.068Z,10.00
2023-04-16T03:12:56.735Z,9.92
2023-04-16T03:15:33.778Z,9.98
2023-04-16T03:18:11.826Z,10.00
2023-04-16T03:20:48.326Z,10.00
2023-04-16T03:23:25.378Z,10.00
2023-04-16T03:26:02.523Z,10.00
2023-04-16T03:28:40.052Z,10.06
2023-04-16T03:31:17.230Z,10.10
2023-04-16T03:33:54.488Z,10.00
2023-04-16T03:36:31.210Z,9.96
2023-04-16T03:39:08.147Z,10.00
2023-04-16T03:41:50.618Z,9.98
2023-04-16T03:44:27.302Z,9.90
2023-04-16T03:47:05.139Z,10.00
2023-04-16T03:49:41.546Z,10.00
2023-04-16T03:52:18.243Z,10.00
2023-04-16T03:54:54.159Z,9.90
2023-04-16T03:57:35.113Z,9.80
2023-04-16T04:00:22.403Z,9.70
2023-04-16T04:03:12.707Z,9.60
2023-04-16T04:05:50.865Z,9.60
2023-04-16T04:08:33.525Z,9.60
2023-04-16T04:11:09.953Z,9.60
2023-04-16T04:13:48.841Z,9.70
2023-04-16T04:16:25.358Z,9.70
2023-04-16T04:19:01.785Z,9.70
2023-04-16T04:21:38.952Z,9.70
2023-04-16T04:24:16.053Z,9.64
2023-04-16T04:26:52.984Z,9.60
2023-04-16T04:29:29.781Z,9.60
2023-04-16T04:32:05.685Z,9.50
2023-04-16T04:34:43.319Z,9.50
2023-04-16T04:37:20.005Z,9.50
2023-04-16T04:39:56.089Z,9.48
2023-04-16T04:42:32.953Z,9.48
2023-04-16T04:45:13.310Z,9.48
2023-04-16T04:47:50.305Z,9.40
2023-04-16T04:50:28.226Z,9.42
2023-04-16T04:53:07.579Z,9.48
2023-04-16T04:55:45.268Z,9.48
2023-04-16T04:58:21.069Z,9.46
2023-04-16T05:00:58.840Z,9.50
2023-04-16T05:03:37.345Z,9.50
2023-04-16T05:06:15.886Z,9.50
2023-04-16T05:08:51.738Z,10.52
2023-04-16T05:11:29.437Z,12.36
2023-04-16T05:14:05.889Z,13.90
2023-04-16T05:16:43.902Z,14.70
2023-04-16T05:19:20.853Z,14.52
2023-04-16T05:21:56.960Z,14.02
2023-04-16T05:24:32.847Z,13.60
2023-04-16T05:27:09.744Z,13.28
2023-04-16T05:29:45.836Z,13.00
2023-04-16T05:32:21.962Z,12.80
2023-04-16T05:34:58.461Z,12.60
2023-04-16T05:37:35.079Z,12.50
2023-04-16T05:40:16.341Z,12.40
2023-04-16T05:42:53.563Z,12.30
2023-04-16T05:45:31.393Z,12.20
2023-04-16T05:48:09.106Z,12.20
2023-04-16T05:50:45.699Z,12.22
2023-04-16T05:53:22.127Z,12.30
2023-04-16T05:55:59.035Z,12.40
2023-04-16T05:58:36.852Z,12.40
2023-04-16T06:01:14.544Z,12.40
2023-04-16T06:03:51.505Z,12.50
2023-04-16T06:06:29.142Z,12.54
2023-04-16T06:09:05.781Z,12.50
2023-04-16T06:11:41.772Z,12.48
2023-04-16T06:14:18.141Z,12.30
2023-04-16T06:16:55.218Z,12.10
2023-04-16T06:19:31.821Z,11.90
2023-04-16T06:22:08.714Z,11.80
2023-04-16T06:24:46.259Z,11.80
2023-04-16T06:27:22.811Z,11.80
2023-04-16T06:29:59.538Z,11.80
2023-04-16T06:32:36.156Z,11.80
2023-04-16T06:35:15.022Z,11.80
2023-04-16T06:37:52.143Z,11.80
2023-04-16T06:40:28.936Z,11.90
2023-04-16T06:43:06.209Z,11.84
2023-04-16T06:45:43.494Z,11.80
2023-04-16T06:48:20.511Z,11.80
2023-04-16T06:50:58.785Z,11.80
2023-04-16T06:53:35.880Z,11.90
2023-04-16T06:56:15.768Z,12.00
2023-04-16T06:58:53.095Z,12.14
2023-04-16T07:01:29.588Z,12.30
2023-04-16T07:04:06.165Z,12.40
2023-04-16T07:06:42.584Z,12.58
2023-04-16T07:09:20.336Z,12.70
2023-04-16T07:11:57.189Z,12.80
2023-04-16T07:14:33.512Z,12.90
2023-04-16T07:17:10.510Z,13.00
2023-04-16T07:19:47.189Z,13.10
2023-04-16T07:22:24.638Z,13.30
2023-04-16T07:25:01.391Z,13.42
2023-04-16T07:27:38.783Z,13.60
2023-04-16T07:30:19.263Z,13.70
2023-04-16T07:32:56.057Z,13.82
2023-04-16T07:35:32.400Z,14.00
2023-04-16T07:38:08.920Z,14.10
2023-04-16T07:40:46.343Z,14.20
2023-04-16T07:43:23.620Z,14.30
2023-04-16T07:46:00.327Z,14.40
2023-04-16T07:48:37.426Z,14.50
2023-04-16T07:51:15.017Z,14.60
2023-04-16T07:53:52.175Z,14.70
2023-04-16T07:56:28.667Z,14.76
2023-04-16T07:59:21.070Z,14.80
2023-04-16T08:02:00.725Z,14.90
2023-04-16T08:04:37.487Z,15.00
2023-04-16T08:07:14.081Z,15.08
2023-04-16T08:09:57.462Z,15.20
2023-04-16T08:12:33.823Z,15.30
2023-04-16T08:15:14.432Z,15.38
2023-04-16T08:17:51.073Z,15.48
2023-04-16T08:20:28.310Z,15.50
2023-04-16T08:23:05.473Z,15.58
2023-04-16T08:25:41.627Z,15.66
2023-04-16T08:28:18.424Z,15.72
2023-04-16T08:30:55.413Z,15.80
2023-04-16T08:33:32.969Z,15.90
2023-04-16T08:36:10.874Z,16.00
2023-04-16T08:38:47.799Z,16.02
2023-04-16T08:41:27.935Z,16.10
2023-04-16T08:44:09.999Z,16.20
2023-04-16T08:46:50.660Z,16.20
2023-04-16T08:49:27.981Z,16.30
2023-04-16T08:52:09.363Z,16.30
2023-04-16T08:55:00.681Z,16.40
2023-04-16T08:57:46.246Z,16.42
2023-04-16T09:00:25.976Z,16.50
2023-04-16T09:03:03.084Z,16.60
2023-04-16T09:05:41.635Z,16.60
2023-04-16T09:08:18.543Z,16.60
2023-04-16T09:10:56.487Z,16.70
2023-04-16T09:13:33.942Z,16.70
2023-04-16T09:16:12.737Z,16.70
2023-04-16T09:18:49.181Z,16.62
2023-04-16T09:21:25.881Z,16.70
2023-04-16T09:24:04.973Z,16.70
2023-04-16T09:26:43.814Z,16.80
2023-04-16T09:29:41.621Z,16.80
2023-04-16T09:32:19.281Z,16.90
2023-04-16T09:35:07.210Z,16.90
2023-04-16T09:37:44.286Z,16.90
2023-04-16T09:40:30.887Z,16.96
2023-04-16T09:43:16.672Z,17.02
2023-04-16T09:46:01.079Z,17.10
2023-04-16T09:48:39.782Z,17.12
2023-04-16T09:51:16.395Z,17.20
2023-04-16T09:53:59.187Z,17.30
2023-04-16T09:56:36.866Z,17.40
2023-04-16T09:59:18.748Z,17.40
2023-04-16T10:02:15.175Z,17.48
2023-04-16T10:04:58.444Z,17.50
2023-04-16T10:07:39.259Z,17.50
2023-04-16T10:10:21.475Z,17.60
2023-04-16T10:12:59.933Z,17.70
2023-04-16T10:15:37.400Z,17.70
2023-04-16T10:18:16.853Z,17.80
2023-04-16T10:20:54.165Z,17.80
2023-04-16T10:23:32.450Z,17.80
2023-04-16T10:26:10.742Z,17.90
2023-04-16T10:28:48.010Z,17.80
2023-04-16T10:31:29.199Z,17.90
2023-04-16T10:34:07.335Z,17.90
2023-04-16T10:36:46.113Z,18.00
2023-04-16T10:39:40.145Z,18.00
2023-04-16T10:42:18.070Z,18.10
2023-04-16T10:44:56.200Z,18.20
2023-04-16T10:47:34.295Z,18.30
2023-04-16T10:50:23.272Z,18.30
2023-04-16T10:53:27.967Z,18.40
2023-04-16T10:56:18.191Z,18.46
2023-04-16T10:58:55.231Z,18.50
2023-04-16T11:01:38.262Z,18.60
2023-04-16T11:04:40.303Z,18.60
2023-04-16T11:07:23.629Z,18.70
2023-04-16T11:10:06.341Z,18.74
2023-04-16T11:12:45.138Z,18.80
2023-04-16T11:15:23.495Z,18.90
2023-04-16T11:18:00.267Z,18.90
2023-04-16T11:20:38.100Z,18.90
2023-04-16T11:23:19.217Z,19.00
2023-04-16T11:25:58.008Z,19.00
2023-04-16T11:28:44.500Z,19.10
2023-04-16T11:31:20.820Z,19.18
2023-04-16T11:33:57.732Z,19.10
2023-04-16T11:36:48.858Z,19.10
2023-04-16T11:39:25.481Z,19.10
2023-04-16T11:42:02.229Z,19.20
2023-04-16T11:44:39.709Z,19.30
2023-04-16T11:47:16.805Z,19.20
2023-04-16T11:49:53.913Z,19.12
2023-04-16T11:52:35.110Z,19.20
2023-04-16T11:55:14.151Z,19.10
2023-04-16T11:57:52.117Z,19.20
2023-04-16T12:00:37.084Z,19.30
2023-04-16T12:03:14.030Z,19.40
2023-04-16T12:05:50.526Z,19.50
2023-04-16T12:08:37.191Z,19.50
2023-04-16T12:11:13.783Z,19.60
2023-04-16T12:14:13.441Z,19.70
2023-04-16T12:16:50.236Z,19.78
2023-04-16T12:19:27.077Z,19.80
2023-04-16T12:22:08.296Z,19.80
2023-04-16T12:24:46.263Z,19.90
2023-04-16T12:27:23.156Z,19.90
2023-04-16T12:30:15.802Z,19.90
2023-04-16T12:33:16.368Z,20.00
2023-04-16T12:35:52.265Z,20.10
2023-04-16T12:38:28.391Z,20.10
2023-04-16T12:41:05.574Z,20.00
2023-04-16T12:43:44.380Z,20.10
2023-04-16T12:46:21.293Z,20.14
2023-04-16T12:48:59.245Z,20.20
2023-04-16T12:51:36.269Z,20.20
2023-04-16T12:54:14.332Z,20.20
2023-04-16T12:56:50.919Z,20.30
2023-04-16T12:59:27.586Z,20.40
2023-04-16T13:02:05.849Z,20.50
2023-04-16T13:04:42.157Z,20.60
2023-04-16T13:07:19.230Z,20.70
2023-04-16T13:09:56.480Z,20.80
2023-04-16T13:12:35.102Z,20.80
2023-04-16T13:15:16.233Z,20.90
2023-04-16T13:17:52.622Z,20.78
2023-04-16T13:20:29.793Z,20.60
2023-04-16T13:23:06.304Z,20.50
2023-04-16T13:25:43.364Z,20.42
2023-04-16T13:28:19.750Z,20.30
2023-04-16T13:30:57.118Z,20.14
2023-04-16T13:33:34.072Z,20.00
2023-04-16T13:36:12.182Z,19.90
2023-04-16T13:38:49.399Z,19.90
2023-04-16T13:41:26.531Z,19.90
2023-04-16T13:44:03.748Z,20.00
2023-04-16T13:46:41.138Z,19.90
2023-04-16T13:49:19.414Z,19.90
2023-04-16T13:51:55.759Z,19.80
2023-04-16T13:54:32.828Z,19.80
2023-04-16T13:57:09.898Z,19.70
2023-04-16T13:59:47.310Z,19.70
2023-04-16T14:02:26.558Z,19.60
2023-04-16T14:05:03.011Z,19.50
2023-04-16T14:07:40.279Z,19.50
2023-04-16T14:10:17.407Z,19.50
2023-04-16T14:12:54.229Z,19.52
2023-04-16T14:15:30.767Z,19.50
2023-04-16T14:18:07.937Z,19.38
2023-04-16T14:20:44.527Z,19.30
2023-04-16T14:23:20.507Z,19.20
2023-04-16T14:25:57.494Z,19.14
2023-04-16T14:28:33.858Z,19.10
2023-04-16T14:31:10.818Z,19.00
2023-04-16T14:33:48.198Z,18.90
2023-04-16T14:36:25.206Z,18.84
2023-04-16T14:39:02.666Z,18.80
2023-04-16T14:41:38.616Z,18.80
2023-04-16T14:44:15.317Z,18.70
2023-04-16T14:46:52.338Z,18.70
2023-04-16T14:49:29.269Z,18.64
2023-04-16T14:52:07.353Z,18.60
2023-04-16T14:54:44.384Z,18.60
2023-04-16T14:57:20.508Z,18.60
2023-04-16T14:59:57.470Z,18.60
2023-04-16T15:02:34.695Z,18.68
2023-04-16T15:05:14.490Z,18.70
2023-04-16T15:07:50.694Z,18.60
2023-04-16T15:10:28.875Z,18.60
2023-04-16T15:13:05.361Z,18.60
2023-04-16T15:15:42.710Z,18.50
2023-04-16T15:18:19.947Z,18.48
2023-04-16T15:20:55.644Z,18.40
2023-04-16T15:23:33.101Z,18.40
2023-04-16T15:26:10.090Z,18.32
2023-04-16T15:28:46.221Z,18.30
2023-04-16T15:31:23.283Z,18.32
2023-04-16T15:33:59.710Z,18.40
2023-04-16T15:36:37.036Z,18.40
2023-04-16T15:39:13.932Z,18.30
2023-04-16T15:42:00.512Z,18.30
2023-04-16T15:44:40.788Z,18.30
2023-04-16T15:47:18.604Z,18.30
2023-04-16T15:49:56.242Z,18.38
2023-04-16T15:52:33.097Z,18.34
2023-04-16T15:55:11.657Z,18.38
2023-04-16T15:57:49.004Z,18.40
2023-04-16T16:00:26.303Z,18.30
2023-04-16T16:03:03.398Z,18.30
2023-04-16T16:05:40.443Z,18.30
2023-04-16T16:08:17.181Z,18.30
2023-04-16T16:10:52.529Z,18.30
2023-04-16T16:13:29.140Z,18.20
2023-04-16T16:16:05.816Z,18.10
2023-04-16T16:18:44.785Z,17.94
2023-04-16T16:21:22.027Z,17.90
2023-04-16T16:23:58.459Z,17.88
2023-04-16T16:26:34.522Z,17.80
2023-04-16T16:29:11.971Z,17.80
2023-04-16T16:31:48.500Z,17.72
2023-04-16T16:34:25.565Z,17.70
2023-04-16T16:37:02.828Z,17.64
2023-04-16T16:39:39.063Z,17.60
2023-04-16T16:42:18.967Z,17.50
2023-04-16T16:44:57.536Z,17.52
2023-04-16T16:47:34.456Z,17.50
2023-04-16T16:50:14.200Z,17.40
2023-04-16T16:52:51.274Z,17.40
2023-04-16T16:55:28.362Z,17.30
2023-04-16T16:58:05.960Z,17.28
2023-04-16T17:00:42.513Z,17.12
2023-04-16T17:03:19.598Z,16.92
2023-04-16T17:05:56.799Z,16.70
2023-04-16T17:08:33.806Z,16.50
2023-04-16T17:11:13.477Z,16.30
2023-04-16T17:13:49.385Z,16.14
2023-04-16T17:16:26.304Z,16.00
2023-04-16T17:19:03.432Z,15.80
2023-04-16T17:21:41.409Z,15.64
2023-04-16T17:24:18.350Z,15.60
2023-04-16T17:26:56.260Z,15.50
2023-04-16T17:29:34.329Z,15.42
2023-04-16T17:32:13.096Z,15.50
2023-04-16T17:34:49.780Z,15.50
2023-04-16T17:37:25.878Z,15.50
2023-04-16T17:40:07.704Z,15.60
2023-04-16T17:42:44.808Z,15.60
2023-04-16T17:45:23.405Z,15.50
2023-04-16T17:47:59.968Z,15.50
2023-04-16T17:50:38.939Z,15.46
2023-04-16T17:53:15.962Z,15.40
2023-04-16T17:55:58.862Z,15.30
2023-04-16T17:58:35.944Z,15.30
2023-04-16T18:01:12.291Z,15.30
2023-04-16T18:03:49.896Z,15.30
2023-04-16T18:06:27.857Z,15.30
2023-04-16T18:09:05.400Z,15.30
2023-04-16T18:11:43.118Z,15.30
2023-04-16T18:14:20.574Z,15.30
2023-04-16T18:16:58.654Z,15.20
2023-04-16T18:19:35.737Z,15.20
2023-04-16T18:22:13.325Z,15.20
2023-04-16T18:24:50.730Z,15.16
2023-04-16T18:27:27.760Z,15.10
2023-04-16T18:30:05.282Z,15.10
2023-04-16T18:32:54.984Z,15.10
2023-04-16T18:35:40.965Z,15.00
2023-04-16T18:38:17.519Z,15.00
2023-04-16T18:40:54.148Z,14.90
2023-04-16T18:43:31.664Z,14.90
2023-04-16T18:46:08.433Z,14.90
2023-04-16T18:48:45.543Z,14.94
2023-04-16T18:51:21.541Z,15.00
2023-04-16T18:53:59.108Z,15.00
2023-04-16T18:56:35.783Z,15.00
2023-04-16T18:59:12.610Z,14.90
2023-04-16T19:01:49.647Z,14.90
2023-04-16T19:04:26.271Z,14.80
2023-04-16T19:07:02.321Z,14.72
2023-04-16T19:09:39.379Z,14.70
2023-04-16T19:12:17.087Z,14.60
2023-04-16T19:14:53.247Z,14.54
2023-04-16T19:17:30.819Z,14.50
2023-04-16T19:20:11.740Z,14.42
2023-04-16T19:22:48.516Z,14.40
2023-04-16T19:25:25.404Z,14.30
2023-04-16T19:28:01.940Z,14.20
2023-04-16T19:30:39.659Z,14.20
2023-04-16T19:33:16.003Z,14.10
2023-04-16T19:35:51.460Z,14.00
2023-04-16T19:38:28.100Z,14.00
2023-04-16T19:41:05.302Z,13.90
2023-04-16T19:43:42.062Z,13.90
2023-04-16T19:46:18.629Z,13.80
2023-04-16T19:48:54.651Z,13.76
2023-04-16T19:51:32.037Z,13.70
2023-04-16T19:54:09.709Z,13.70
2023-04-16T19:56:45.756Z,13.60
2023-04-16T19:59:22.558Z,13.60
2023-04-16T20:01:59.094Z,13.50
2023-04-16T20:04:36.659Z,13.48
2023-04-16T20:07:13.719Z,13.40
2023-04-16T20:09:50.885Z,13.40
2023-04-16T20:12:27.885Z,13.36
2023-04-16T20:15:04.834Z,13.30
2023-04-16T20:17:43.022Z,13.30
2023-04-16T20:20:19.892Z,13.30
2023-04-16T20:22:55.773Z,13.22
2023-04-16T20:25:32.203Z,13.20
2023-04-16T20:28:09.039Z,13.14
2023-04-16T20:30:44.716Z,13.10
2023-04-16T20:33:20.521Z,13.00
2023-04-16T20:35:57.172Z,12.92
2023-04-16T20:38:35.869Z,12.90
2023-04-16T20:41:20.561Z,12.86
2023-04-16T20:43:57.701Z,12.80
2023-04-16T20:46:36.513Z,12.80
2023-04-16T20:49:13.988Z,12.80
2023-04-16T20:51:51.877Z,12.70
2023-04-16T20:54:29.207Z,12.70
2023-04-16T20:57:06.278Z,12.64
2023-04-16T20:59:42.599Z,12.60
2023-04-16T21:02:20.529Z,12.60
2023-04-16T21:04:57.147Z,12.52
2023-04-16T21:07:34.396Z,12.50
2023-04-16T21:10:17.782Z,12.50
2023-04-16T21:12:54.636Z,12.40
2023-04-16T21:15:30.936Z,12.40
2023-04-16T21:18:08.873Z,12.30
2023-04-16T21:20:46.555Z,12.30
2023-04-16T21:23:23.505Z,12.20
2023-04-16T21:26:02.363Z,12.20
2023-04-16T21:28:38.983Z,12.20
2023-04-16T21:31:15.750Z,12.20
2023-04-16T21:33:52.285Z,12.20
2023-04-16T21:36:29.399Z,12.20
2023-04-16T21:39:05.650Z,12.20
2023-04-16T21:41:42.784Z,12.16
2023-04-16T21:44:19.165Z,12.10
2023-04-16T21:46:55.595Z,12.10
2023-04-16T21:49:32.607Z,12.00
2023-04-16T21:52:15.134Z,12.00
2023-04-16T21:54:51.344Z,12.00
2023-04-16T21:57:28.004Z,11.94
2023-04-16T22:00:09.593Z,11.90
2023-04-16T22:02:45.758Z,11.90
2023-04-16T22:05:22.726Z,11.90
2023-04-16T22:08:02.575Z,11.88
2023-04-16T22:10:44.509Z,11.84
2023-04-16T22:13:21.142Z,11.80
2023-04-16T22:15:57.752Z,11.80
2023-04-16T22:18:34.867Z,11.80
2023-04-16T22:21:12.407Z,11.80
2023-04-16T22:23:50.216Z,11.80
2023-04-16T22:26:26.372Z,11.80
2023-04-16T22:29:03.328Z,11.70
2023-04-16T22:31:40.973Z,11.70
2023-04-16T22:34:17.540Z,11.70
2023-04-16T22:36:54.523Z,11.70
2023-04-16T22:39:31.723Z,11.70
2023-04-16T22:42:08.459Z,11.70
2023-04-16T22:44:50.256Z,11.70
2023-04-16T22:47:27.523Z,11.70
2023-04-16T22:50:04.684Z,11.70
2023-04-16T22:52:40.767Z,11.70
2023-04-16T22:55:19.070Z,11.70
2023-04-16T22:57:55.560Z,11.70
2023-04-16T23:00:32.790Z,11.70
2023-04-16T23:03:09.216Z,11.70
2023-04-16T23:05:45.283Z,11.60
2023-04-16T23:08:21.594Z,11.60
2023-04-16T23:10:57.823Z,11.60
2023-04-16T23:13:34.453Z,11.60
2023-04-16T23:16:13.368Z,11.60
2023-04-16T23:18:49.753Z,11.54
2023-04-16T23:21:26.077Z,11.50
2023-04-16T23:24:03.692Z,11.46
2023-04-16T23:26:40.087Z,11.40
2023-04-16T23:29:16.772Z,11.40
2023-04-16T23:31:53.846Z,11.40
2023-04-16T23:34:30.568Z,11.40
2023-04-16T23:37:07.822Z,11.40
2023-04-16T23:39:43.729Z,11.40
2023-04-16T23:42:20.790Z,11.40
2023-04-16T23:44:58.207Z,11.40
2023-04-16T23:47:34.537Z,11.38
2023-04-16T23:50:14.360Z,11.30
2023-04-16T23:52:51.468Z,11.30
2023-04-16T23:55:29.117Z,11.30
2023-04-16T23:58:06.011Z,11.30
